createdAt,value
2018-03-23T00:00:44.668Z,99.20
2018-03-23T00:03:12.302Z,99.20
2018-03-23T00:05:39.844Z,99.20
2018-03-23T00:08:07.386Z,99.30
2018-03-23T00:10:35.660Z,99.30
2018-03-23T00:13:04.001Z,99.40
2018-03-23T00:15:31.855Z,99.30
2018-03-23T00:17:59.414Z,99.30
2018-03-23T00:20:26.977Z,99.40
2018-03-23T00:22:54.527Z,99.30
2018-03-23T00:25:22.835Z,99.40
2018-03-23T00:27:50.789Z,99.40
2018-03-23T00:30:18.395Z,99.50
2018-03-23T00:32:45.947Z,99.40
2018-03-23T00:35:13.517Z,99.40
2018-03-23T00:37:41.075Z,99.40
2018-03-23T00:40:08.791Z,99.40
2018-03-23T00:42:37.103Z,99.40
2018-03-23T00:45:04.679Z,99.40
2018-03-23T00:47:33.082Z,99.40
2018-03-23T00:50:00.627Z,99.80
2018-03-23T00:52:28.493Z,99.30
2018-03-23T00:54:56.054Z,99.40
2018-03-23T00:57:26.112Z,99.40
2018-03-23T00:59:53.717Z,99.30
2018-03-23T01:02:21.301Z,99.40
2018-03-23T01:04:49.831Z,99.40
2018-03-23T01:07:17.377Z,99.40
2018-03-23T01:09:44.924Z,99.70
2018-03-23T01:12:13.235Z,99.40
2018-03-23T01:14:40.787Z,99.40
2018-03-23T01:17:08.361Z,99.50
2018-03-23T01:19:35.898Z,99.50
2018-03-23T01:22:04.215Z,99.50
2018-03-23T01:24:31.782Z,99.50
2018-03-23T01:26:59.332Z,99.50
2018-03-23T01:29:26.907Z,99.50
2018-03-23T01:31:54.565Z,99.50
2018-03-23T01:34:22.103Z,99.50
2018-03-23T01:36:50.405Z,99.60
2018-03-23T01:39:17.968Z,99.60
2018-03-23T01:41:45.539Z,99.60
2018-03-23T01:44:13.105Z,99.60
2018-03-23T01:46:40.644Z,99.70
2018-03-23T01:49:08.978Z,99.70
2018-03-23T01:51:36.577Z,99.70
2018-03-23T01:54:04.144Z,99.80
2018-03-23T01:56:31.686Z,99.80
2018-03-23T01:58:59.243Z,99.70
2018-03-23T02:01:26.792Z,99.80
2018-03-23T02:03:54.414Z,99.80
2018-03-23T02:06:22.018Z,99.80
2018-03-23T02:08:49.579Z,99.80
2018-03-23T02:11:17.886Z,99.80
2018-03-23T02:13:45.449Z,99.80
2018-03-23T02:16:14.095Z,99.80
2018-03-23T02:18:42.435Z,99.80
2018-03-23T02:21:09.979Z,99.80
2018-03-23T02:23:37.535Z,99.80
2018-03-23T02:26:05.130Z,99.80
2018-03-23T02:28:32.657Z,99.80
2018-03-23T02:31:00.228Z,99.80
2018-03-23T02:33:28.536Z,99.70
2018-03-23T02:35:56.095Z,99.70
2018-03-23T02:38:23.659Z,99.70
2018-03-23T02:40:51.205Z,99.70
2018-03-23T02:43:19.599Z,99.60
2018-03-23T02:45:47.213Z,99.60
2018-03-23T02:48:14.758Z,99.60
2018-03-23T02:50:42.339Z,99.60
2018-03-23T02:53:09.968Z,99.60
2018-03-23T02:55:37.527Z,99.70
2018-03-23T02:58:05.037Z,99.70
2018-03-23T03:00:32.613Z,99.70
2018-03-23T03:03:00.192Z,99.70
2018-03-23T03:05:27.724Z,99.70
2018-03-23T03:07:55.555Z,99.70
2018-03-23T03:10:23.095Z,99.70
2018-03-23T03:12:51.413Z,99.60
2018-03-23T03:15:18.963Z,99.60
2018-03-23T03:17:46.562Z,99.60
2018-03-23T03:20:14.132Z,99.70
2018-03-23T03:22:41.673Z,99.80
2018-03-23T03:25:09.214Z,99.80
2018-03-23T03:27:37.534Z,99.80
2018-03-23T03:30:05.066Z,99.80
2018-03-23T03:32:33.402Z,99.80
2018-03-23T03:35:00.951Z,99.80
2018-03-23T03:37:28.537Z,99.70
2018-03-23T03:39:56.074Z,99.70
2018-03-23T03:42:23.619Z,99.70
2018-03-23T03:44:51.187Z,99.70
2018-03-23T03:47:18.878Z,99.60
2018-03-23T03:49:46.422Z,99.70
2018-03-23T03:52:13.975Z,99.70
2018-03-23T03:54:42.281Z,99.70
2018-03-23T03:57:09.846Z,99.60
2018-03-23T03:59:37.393Z,99.70
2018-03-23T04:02:05.695Z,99.70
2018-03-23T04:04:33.249Z,99.70
2018-03-23T04:07:00.815Z,99.70
2018-03-23T04:09:28.389Z,99.70
2018-03-23T04:11:55.977Z,99.70
2018-03-23T04:14:23.520Z,99.60
2018-03-23T04:16:51.054Z,99.50
2018-03-23T04:19:19.370Z,99.70
2018-03-23T04:21:46.984Z,99.70
2018-03-23T04:24:14.526Z,99.70
2018-03-23T04:26:42.074Z,99.70
2018-03-23T04:29:09.616Z,99.80
2018-03-23T04:31:37.198Z,99.90
2018-03-23T04:34:04.746Z,99.80
2018-03-23T04:36:32.307Z,99.80
2018-03-23T04:39:00.611Z,99.80
2018-03-23T04:41:28.165Z,99.80
2018-03-23T04:43:55.707Z,99.70
2018-03-23T04:46:24.369Z,99.80
2018-03-23T04:48:51.880Z,99.70
2018-03-23T04:51:20.198Z,99.80
2018-03-23T04:53:47.912Z,99.70
2018-03-23T04:56:15.450Z,99.80
2018-03-23T04:58:43.020Z,99.70
2018-03-23T05:01:10.573Z,99.70
2018-03-23T05:03:38.212Z,99.70
2018-03-23T05:06:05.742Z,99.80
2018-03-23T05:08:34.068Z,99.90
2018-03-23T05:11:01.634Z,99.80
2018-03-23T05:13:29.186Z,99.60
2018-03-23T05:15:56.717Z,99.80
2018-03-23T05:18:24.260Z,99.80
2018-03-23T05:20:51.811Z,99.80
2018-03-23T05:23:19.399Z,99.80
2018-03-23T05:25:47.054Z,99.80
2018-03-23T05:28:14.598Z,99.80
2018-03-23T05:30:42.164Z,99.80
2018-03-23T05:33:09.921Z,99.80
2018-03-23T05:35:37.482Z,99.80
2018-03-23T05:38:05.270Z,99.70
2018-03-23T05:40:32.923Z,99.70
2018-03-23T05:43:00.460Z,99.90
2018-03-23T05:45:28.769Z,99.80
2018-03-23T05:47:56.323Z,99.70
2018-03-23T05:50:23.896Z,99.80
2018-03-23T05:52:52.286Z,99.70
2018-03-23T05:55:19.851Z,99.80
2018-03-23T05:57:47.394Z,99.80
2018-03-23T06:00:15.802Z,99.80
2018-03-23T06:02:43.366Z,99.80
2018-03-23T06:05:10.903Z,99.70
2018-03-23T06:07:39.220Z,99.70
2018-03-23T06:10:06.789Z,99.90
2018-03-23T06:12:34.412Z,99.80
2018-03-23T06:15:01.956Z,99.80
2018-03-23T06:17:29.510Z,99.70
2018-03-23T06:19:57.048Z,99.80
2018-03-23T06:22:24.760Z,99.70
2018-03-23T06:24:52.339Z,99.70
2018-03-23T06:27:20.100Z,99.70
2018-03-23T06:29:47.924Z,99.70
2018-03-23T06:32:15.502Z,99.60
2018-03-23T06:34:43.041Z,99.50
2018-03-23T06:37:10.658Z,99.50
2018-03-23T06:39:38.208Z,99.50
2018-03-23T06:42:05.766Z,99.50
2018-03-23T06:44:33.364Z,99.50
2018-03-23T06:47:00.958Z,99.60
2018-03-23T06:49:29.561Z,99.50
2018-03-23T06:51:57.151Z,99.50
2018-03-23T06:54:24.764Z,99.40
2018-03-23T06:56:52.261Z,99.70
2018-03-23T06:59:19.942Z,99.50
2018-03-23T07:01:47.545Z,99.40
2018-03-23T07:04:15.068Z,99.30
2018-03-23T07:06:42.850Z,99.20
2018-03-23T07:09:12.700Z,99.10
2018-03-23T07:11:41.155Z,99.10
2018-03-23T07:14:08.734Z,99.10
2018-03-23T07:16:36.359Z,99.10
2018-03-23T07:19:04.679Z,99.10
2018-03-23T07:21:32.326Z,99.10
2018-03-23T07:23:59.883Z,99.10
2018-03-23T07:26:27.449Z,98.90
2018-03-23T07:28:55.016Z,99.00
2018-03-23T07:31:22.582Z,98.90
2018-03-23T07:33:50.155Z,98.90
2018-03-23T07:36:17.698Z,98.90
2018-03-23T07:38:46.088Z,98.90
2018-03-23T07:41:14.391Z,98.80
2018-03-23T07:43:41.960Z,98.80
2018-03-23T07:46:09.513Z,98.70
2018-03-23T07:48:37.065Z,98.60
2018-03-23T07:51:04.644Z,98.40
2018-03-23T07:53:32.193Z,98.10
2018-03-23T07:55:59.825Z,98.10
2018-03-23T07:58:28.168Z,97.80
2018-03-23T08:00:55.734Z,97.80
2018-03-23T08:03:23.321Z,97.70
2018-03-23T08:05:51.776Z,97.60
2018-03-23T08:08:19.328Z,97.50
2018-03-23T08:10:47.655Z,97.40
2018-03-23T08:13:15.240Z,97.30
2018-03-23T08:15:42.849Z,97.40
2018-03-23T08:18:10.413Z,97.30
2018-03-23T08:20:37.940Z,97.50
2018-03-23T08:23:05.492Z,97.70
2018-03-23T08:25:33.069Z,97.50
2018-03-23T08:28:00.631Z,97.50
2018-03-23T08:30:28.194Z,97.50
2018-03-23T08:32:55.760Z,97.40
2018-03-23T08:35:23.378Z,97.30
2018-03-23T08:37:50.933Z,97.30
2018-03-23T08:40:19.629Z,97.30
2018-03-23T08:42:47.930Z,97.20
2018-03-23T08:45:15.482Z,97.30
2018-03-23T08:47:43.026Z,97.20
2018-03-23T08:50:11.326Z,97.20
2018-03-23T08:52:38.881Z,97.20
2018-03-23T08:55:07.209Z,97.20
2018-03-23T08:57:34.762Z,97.20
2018-03-23T09:00:02.306Z,97.30
2018-03-23T09:02:29.873Z,97.00
2018-03-23T09:04:57.435Z,96.70
2018-03-23T09:07:24.992Z,96.50
2018-03-23T09:09:53.305Z,96.50
2018-03-23T09:12:20.857Z,96.50
2018-03-23T09:14:48.431Z,96.70
2018-03-23T09:17:16.000Z,96.80
2018-03-23T09:19:43.546Z,96.80
2018-03-23T09:22:11.104Z,96.70
2018-03-23T09:24:39.437Z,96.60
2018-03-23T09:27:07.001Z,96.60
2018-03-23T09:29:34.558Z,96.80
2018-03-23T09:32:02.110Z,97.00
2018-03-23T09:34:29.643Z,97.10
2018-03-23T09:36:57.961Z,97.10
2018-03-23T09:39:25.502Z,97.10
2018-03-23T09:41:53.061Z,97.50
2018-03-23T09:44:21.399Z,97.10
2018-03-23T09:46:48.942Z,97.10
2018-03-23T09:49:16.497Z,97.10
2018-03-23T09:51:44.031Z,97.20
2018-03-23T09:54:12.376Z,97.40
2018-03-23T09:56:39.913Z,97.40
2018-03-23T09:59:07.452Z,97.30
2018-03-23T10:01:35.761Z,97.20
2018-03-23T10:04:03.399Z,97.20
2018-03-23T10:06:30.919Z,97.20
2018-03-23T10:08:58.454Z,97.00
2018-03-23T10:11:26.013Z,97.10
2018-03-23T10:13:53.541Z,97.10
2018-03-23T10:16:21.106Z,96.80
2018-03-23T10:18:48.829Z,97.00
2018-03-23T10:21:16.383Z,96.40
2018-03-23T10:23:44.672Z,96.40
2018-03-23T10:26:12.219Z,96.30
2018-03-23T10:28:40.550Z,95.70
2018-03-23T10:31:08.382Z,95.60
2018-03-23T10:33:35.941Z,95.30
2018-03-23T10:36:04.253Z,94.60
2018-03-23T10:38:31.792Z,94.60
2018-03-23T10:41:00.086Z,94.40
2018-03-23T10:43:27.663Z,94.40
2018-03-23T10:45:55.223Z,94.10
2018-03-23T10:48:22.840Z,94.10
2018-03-23T10:50:50.427Z,94.40
2018-03-23T10:53:18.732Z,93.90
2018-03-23T10:55:46.712Z,93.80
2018-03-23T10:58:14.267Z,93.30
2018-03-23T11:00:47.494Z,93.10
2018-03-23T11:03:15.810Z,93.10
2018-03-23T11:05:43.364Z,93.10
2018-03-23T11:08:10.901Z,93.10
2018-03-23T11:10:38.448Z,93.10
2018-03-23T11:13:06.013Z,92.80
2018-03-23T11:15:33.649Z,92.60
2018-03-23T11:18:01.196Z,92.80
2018-03-23T11:20:28.738Z,92.60
2018-03-23T11:22:56.324Z,92.60
2018-03-23T11:25:23.959Z,93.10
2018-03-23T11:27:51.532Z,92.70
2018-03-23T11:30:19.181Z,92.70
2018-03-23T11:32:47.468Z,92.40
2018-03-23T11:35:15.039Z,92.40
2018-03-23T11:37:42.611Z,91.90
2018-03-23T11:40:10.936Z,91.80
2018-03-23T11:42:38.486Z,91.90
2018-03-23T11:45:06.033Z,91.40
2018-03-23T11:47:33.582Z,91.00
2018-03-23T11:50:01.198Z,91.40
2018-03-23T11:52:28.735Z,91.10
2018-03-23T11:54:56.274Z,90.50
2018-03-23T11:57:23.825Z,90.30
2018-03-23T11:59:51.503Z,90.70
2018-03-23T12:02:19.089Z,90.70
2018-03-23T12:04:46.767Z,91.10
2018-03-23T12:07:14.297Z,91.30
2018-03-23T12:09:41.844Z,90.90
2018-03-23T12:12:10.293Z,91.40
2018-03-23T12:14:37.837Z,91.40
2018-03-23T12:17:05.388Z,91.40
2018-03-23T12:19:33.099Z,91.60
2018-03-23T12:22:00.647Z,91.60
2018-03-23T12:24:28.188Z,91.40
2018-03-23T12:26:55.791Z,91.60
2018-03-23T12:29:23.356Z,91.60
2018-03-23T12:31:50.894Z,91.60
2018-03-23T12:34:18.452Z,91.50
2018-03-23T12:36:45.994Z,91.60
2018-03-23T12:39:14.315Z,91.60
2018-03-23T12:41:41.877Z,91.60
2018-03-23T12:44:09.433Z,91.60
2018-03-23T12:46:36.986Z,91.50
2018-03-23T12:49:04.653Z,91.50
2018-03-23T12:51:33.003Z,91.40
2018-03-23T12:54:00.548Z,91.40
2018-03-23T12:56:28.117Z,91.30
2018-03-23T12:58:55.661Z,91.20
2018-03-23T13:01:23.206Z,90.90
2018-03-23T13:03:50.774Z,90.80
2018-03-23T13:06:18.313Z,90.30
2018-03-23T13:08:45.912Z,90.10
2018-03-23T13:11:13.522Z,90.20
2018-03-23T13:13:41.167Z,90.40
2018-03-23T13:16:08.756Z,90.70
2018-03-23T13:18:36.306Z,90.20
2018-03-23T13:21:03.879Z,90.40
2018-03-23T13:23:31.528Z,90.30
2018-03-23T13:25:59.072Z,90.30
2018-03-23T13:28:26.649Z,90.20
2018-03-23T13:30:54.205Z,90.10
2018-03-23T13:33:22.408Z,89.10
2018-03-23T13:35:49.970Z,88.10
2018-03-23T13:38:17.502Z,87.20
2018-03-23T13:40:45.078Z,86.50
2018-03-23T13:43:12.621Z,86.50
2018-03-23T13:45:40.206Z,86.80
2018-03-23T13:48:07.768Z,86.90
2018-03-23T13:50:35.299Z,86.30
2018-03-23T13:53:03.131Z,87.00
2018-03-23T13:55:30.687Z,86.90
2018-03-23T13:57:58.224Z,87.60
2018-03-23T14:00:31.326Z,88.60
2018-03-23T14:02:58.891Z,88.00
2018-03-23T14:05:26.459Z,88.40
2018-03-23T14:07:53.997Z,87.60
2018-03-23T14:10:22.368Z,88.80
2018-03-23T14:12:49.995Z,88.80
2018-03-23T14:15:17.567Z,89.10
2018-03-23T14:17:45.153Z,90.00
2018-03-23T14:20:12.668Z,90.00
2018-03-23T14:22:40.330Z,90.00
2018-03-23T14:25:07.914Z,90.20
2018-03-23T14:27:35.521Z,90.40
2018-03-23T14:30:03.122Z,90.40
2018-03-23T14:32:31.474Z,88.60
2018-03-23T14:34:59.044Z,88.60
2018-03-23T14:37:26.713Z,88.30
2018-03-23T14:39:54.302Z,88.30
2018-03-23T14:42:22.606Z,88.20
2018-03-23T14:44:50.149Z,88.10
2018-03-23T14:47:18.492Z,87.20
2018-03-23T14:49:46.041Z,87.00
2018-03-23T14:52:13.584Z,86.30
2018-03-23T14:54:41.173Z,85.70
2018-03-23T14:57:08.710Z,86.00
2018-03-23T14:59:36.541Z,86.10
2018-03-23T15:02:04.087Z,86.60
2018-03-23T15:04:31.692Z,86.50
2018-03-23T15:07:00.056Z,86.70
2018-03-23T15:09:27.602Z,86.60
2018-03-23T15:11:55.176Z,86.70
2018-03-23T15:14:22.877Z,86.80
2018-03-23T15:16:51.211Z,86.60
2018-03-23T15:19:18.780Z,86.50
2018-03-23T15:21:46.420Z,86.90
2018-03-23T15:24:14.048Z,86.60
2018-03-23T15:26:41.720Z,86.40
2018-03-23T15:29:09.278Z,86.30
2018-03-23T15:31:36.821Z,86.90
2018-03-23T15:34:04.379Z,87.20
2018-03-23T15:36:31.951Z,87.80
2018-03-23T15:38:59.498Z,88.50
2018-03-23T15:41:27.040Z,89.10
2018-03-23T15:43:54.620Z,89.50
2018-03-23T15:46:22.147Z,90.00
2018-03-23T15:48:50.475Z,90.00
2018-03-23T15:51:18.017Z,90.00
2018-03-23T15:53:45.601Z,89.90
2018-03-23T15:56:13.168Z,90.00
2018-03-23T15:58:40.721Z,90.10
2018-03-23T16:01:08.311Z,90.30
2018-03-23T16:03:35.899Z,90.40
2018-03-23T16:06:03.482Z,90.40
2018-03-23T16:08:31.050Z,90.40
2018-03-23T16:10:59.370Z,90.30
2018-03-23T16:13:26.948Z,90.30
2018-03-23T16:15:54.496Z,90.40
2018-03-23T16:18:22.105Z,90.40
2018-03-23T16:20:49.728Z,90.50
2018-03-23T16:23:17.300Z,90.60
2018-03-23T16:25:45.341Z,90.70
2018-03-23T16:28:13.660Z,90.70
2018-03-23T16:30:41.212Z,90.70
2018-03-23T16:33:08.767Z,90.70
2018-03-23T16:35:37.126Z,91.10
2018-03-23T16:38:04.696Z,91.10
2018-03-23T16:40:32.259Z,91.00
2018-03-23T16:42:59.844Z,91.10
2018-03-23T16:45:27.381Z,91.20
2018-03-23T16:47:54.919Z,91.20
2018-03-23T16:50:22.488Z,91.20
2018-03-23T16:52:50.083Z,91.30
2018-03-23T16:55:17.675Z,91.40
2018-03-23T16:57:45.992Z,91.40
2018-03-23T17:00:13.542Z,91.30
2018-03-23T17:02:41.192Z,91.30
2018-03-23T17:05:09.491Z,91.40
2018-03-23T17:07:37.073Z,91.50
2018-03-23T17:10:04.618Z,91.40
2018-03-23T17:12:32.303Z,91.40
2018-03-23T17:14:59.908Z,91.40
2018-03-23T17:17:27.467Z,91.40
2018-03-23T17:19:55.058Z,91.60
2018-03-23T17:22:23.392Z,91.90
2018-03-23T17:24:50.965Z,91.80
2018-03-23T17:27:18.540Z,91.90
2018-03-23T17:29:46.096Z,91.90
2018-03-23T17:32:13.649Z,91.90
2018-03-23T17:34:41.215Z,91.90
2018-03-23T17:37:08.892Z,91.90
2018-03-23T17:39:36.493Z,92.20
2018-03-23T17:42:04.120Z,91.90
2018-03-23T17:44:31.682Z,92.00
2018-03-23T17:46:59.255Z,92.00
2018-03-23T17:49:26.842Z,92.10
2018-03-23T17:51:54.452Z,92.20
2018-03-23T17:54:22.789Z,92.30
2018-03-23T17:56:50.341Z,92.30
2018-03-23T17:59:17.914Z,92.30
2018-03-23T18:01:45.464Z,92.40
2018-03-23T18:04:13.039Z,92.40
2018-03-23T18:06:40.588Z,92.40
2018-03-23T18:09:08.259Z,92.50
2018-03-23T18:11:35.873Z,92.50
2018-03-23T18:14:03.489Z,92.40
2018-03-23T18:16:31.077Z,92.50
2018-03-23T18:18:58.627Z,92.50
2018-03-23T18:21:26.169Z,92.60
2018-03-23T18:23:53.713Z,92.60
2018-03-23T18:26:22.035Z,92.70
2018-03-23T18:28:49.603Z,92.70
2018-03-23T18:31:17.196Z,92.70
2018-03-23T18:33:44.743Z,92.70
2018-03-23T18:36:12.298Z,92.80
2018-03-23T18:38:39.849Z,92.80
2018-03-23T18:41:07.433Z,92.90
2018-03-23T18:43:34.985Z,92.90
2018-03-23T18:46:02.536Z,92.90
2018-03-23T18:48:30.106Z,93.00
2018-03-23T18:50:57.659Z,93.00
2018-03-23T18:53:26.003Z,93.10
2018-03-23T18:55:53.561Z,93.10
2018-03-23T18:58:21.435Z,93.10
2018-03-23T19:00:48.969Z,93.10
2018-03-23T19:03:16.517Z,93.20
2018-03-23T19:05:45.198Z,93.50
2018-03-23T19:08:13.508Z,93.60
2018-03-23T19:10:41.043Z,93.60
2018-03-23T19:13:09.356Z,93.80
2018-03-23T19:15:36.968Z,93.80
2018-03-23T19:18:04.496Z,93.80
2018-03-23T19:20:32.053Z,93.70
2018-03-23T19:22:59.608Z,93.80
2018-03-23T19:25:27.166Z,93.80
2018-03-23T19:27:55.475Z,93.70
2018-03-23T19:30:23.060Z,93.70
2018-03-23T19:32:50.661Z,93.90
2018-03-23T19:35:18.203Z,93.90
2018-03-23T19:37:45.795Z,93.90
2018-03-23T19:40:13.447Z,94.00
2018-03-23T19:42:41.037Z,94.10
2018-03-23T19:45:09.415Z,94.10
2018-03-23T19:47:36.958Z,94.10
2018-03-23T19:50:04.530Z,94.20
2018-03-23T19:52:32.107Z,94.10
2018-03-23T19:55:00.478Z,94.20
2018-03-23T19:57:28.031Z,94.20
2018-03-23T19:59:55.588Z,94.30
2018-03-23T20:02:23.168Z,94.40
2018-03-23T20:04:50.754Z,94.40
2018-03-23T20:07:19.400Z,94.50
2018-03-23T20:09:46.946Z,94.50
2018-03-23T20:12:15.142Z,94.50
2018-03-23T20:14:42.750Z,94.60
2018-03-23T20:17:10.312Z,94.70
2018-03-23T20:19:37.977Z,94.70
2018-03-23T20:22:05.633Z,94.70
2018-03-23T20:24:33.152Z,94.60
2018-03-23T20:27:06.970Z,94.70
2018-03-23T20:29:34.516Z,94.70
2018-03-23T20:32:08.343Z,94.60
2018-03-23T20:34:35.910Z,94.60
2018-03-23T20:37:03.544Z,94.60
2018-03-23T20:39:31.920Z,94.70
2018-03-23T20:41:59.467Z,94.70
2018-03-23T20:44:27.082Z,94.80
2018-03-23T20:46:54.768Z,94.80
2018-03-23T20:49:22.354Z,94.70
2018-03-23T20:51:49.974Z,94.70
2018-03-23T20:54:18.309Z,94.80
2018-03-23T20:56:45.868Z,94.80
2018-03-23T20:59:13.458Z,94.90
2018-03-23T21:01:41.036Z,95.00
2018-03-23T21:04:08.619Z,95.00
2018-03-23T21:06:36.931Z,95.10
2018-03-23T21:09:04.551Z,95.10
2018-03-23T21:11:32.435Z,95.10
2018-03-23T21:14:00.761Z,95.10
2018-03-23T21:16:28.322Z,95.10
2018-03-23T21:18:55.880Z,95.20
2018-03-23T21:21:23.439Z,95.20
2018-03-23T21:23:51.000Z,95.20
2018-03-23T21:26:18.616Z,95.20
2018-03-23T21:28:46.173Z,95.20
2018-03-23T21:31:13.803Z,95.30
2018-03-23T21:33:41.402Z,95.30
2018-03-23T21:36:09.025Z,95.30
2018-03-23T21:38:37.381Z,95.50
2018-03-23T21:41:04.934Z,95.50
2018-03-23T21:43:32.493Z,95.60
2018-03-23T21:46:00.032Z,95.60
2018-03-23T21:48:27.620Z,95.60
2018-03-23T21:50:55.165Z,95.80
2018-03-23T21:53:22.696Z,96.00
2018-03-23T21:55:51.006Z,96.20
2018-03-23T21:58:18.605Z,96.20
2018-03-23T22:00:46.134Z,96.30
2018-03-23T22:03:13.778Z,96.30
2018-03-23T22:05:42.090Z,96.30
2018-03-23T22:08:09.648Z,96.20
2018-03-23T22:10:37.189Z,96.20
2018-03-23T22:13:05.535Z,96.20
2018-03-23T22:15:33.085Z,96.20
2018-03-23T22:18:00.635Z,96.20
2018-03-23T22:20:28.224Z,96.20
2018-03-23T22:22:55.768Z,96.20
2018-03-23T22:25:23.382Z,96.10
2018-03-23T22:27:51.206Z,96.10
2018-03-23T22:30:18.740Z,96.60
2018-03-23T22:32:46.276Z,96.40
2018-03-23T22:35:13.848Z,96.50
2018-03-23T22:37:41.397Z,96.60
2018-03-23T22:40:09.087Z,96.90
2018-03-23T22:42:36.647Z,97.40
2018-03-23T22:45:04.179Z,97.20
2018-03-23T22:47:31.940Z,97.50
2018-03-23T22:49:59.504Z,97.80
2018-03-23T22:52:27.049Z,97.80
2018-03-23T22:54:55.360Z,97.90
2018-03-23T22:57:22.923Z,97.90
2018-03-23T22:59:50.468Z,97.50
2018-03-23T23:02:18.071Z,97.80
2018-03-23T23:04:45.660Z,97.70
2018-03-23T23:07:13.299Z,97.60
2018-03-23T23:09:40.843Z,97.60
2018-03-23T23:12:08.380Z,97.70
2018-03-23T23:14:37.052Z,97.90
2018-03-23T23:17:04.559Z,97.90
2018-03-23T23:19:32.095Z,98.00
2018-03-23T23:21:59.737Z,98.10
2018-03-23T23:24:27.274Z,98.10
2018-03-23T23:26:54.908Z,98.10
2018-03-23T23:29:22.421Z,98.20
2018-03-23T23:31:49.958Z,98.30
2018-03-23T23:34:17.500Z,98.30
2018-03-23T23:36:45.794Z,98.30
2018-03-23T23:39:13.346Z,98.30
2018-03-23T23:41:41.692Z,98.20
2018-03-23T23:44:09.225Z,98.20
2018-03-23T23:46:36.787Z,98.30
2018-03-23T23:49:04.333Z,98.50
2018-03-23T23:51:32.694Z,99.10
2018-03-23T23:54:00.249Z,99.10
2018-03-23T23:56:27.771Z,99.30
2018-03-23T23:58:55.330Z,99.40
